Time;durP1;ratioP1;P1;durP2;ratioP2;P2;SDS_P1;SDS_P2;PMS_P1;PMS_P2;Temp;Humidity;BMP_temperature;BMP_pressure;BME280_temperature;BME280_humidity;BME280_pressure;Samples;Min_cycle;Max_cycle;Signal;HPM_P1;HPM_P2
2023/02/03 00:02:05;;;;;;;16.37;14.57;;;;;;;-0.92;100.00;97904.72;5061759;28;20854;-64
2023/02/03 00:04:33;;;;;;;14.30;12.90;;;;;;;-0.93;100.00;97897.84;5045635;28;20292;-63
2023/02/03 00:07:00;;;;;;;17.90;15.47;;;;;;;-0.93;100.00;97898.69;5045221;28;20534;-64
2023/02/03 00:09:28;;;;;;;15.43;13.83;;;;;;;-0.97;100.00;97891.16;5032509;28;20248;-65
2023/02/03 00:11:56;;;;;;;16.77;14.97;;;;;;;-0.88;100.00;97899.25;5065547;28;20539;-63
2023/02/03 00:14:23;;;;;;;16.30;14.60;;;;;;;-0.86;100.00;97901.72;5026427;28;20631;-65
2023/02/03 00:16:52;;;;;;;15.67;14.17;;;;;;;-0.86;100.00;97903.50;5062060;28;20494;-64
2023/02/03 00:19:20;;;;;;;16.30;14.57;;;;;;;-0.85;100.00;97894.78;5052204;28;20207;-61
2023/02/03 00:21:47;;;;;;;14.30;12.37;;;;;;;-0.84;100.00;97899.06;5061398;28;20217;-61
2023/02/03 00:24:15;;;;;;;14.60;13.20;;;;;;;-0.84;100.00;97892.06;5046548;28;20210;-64
2023/02/03 00:26:43;;;;;;;15.40;13.80;;;;;;;-0.82;100.00;97897.19;5047991;28;20218;-62
2023/02/03 00:29:11;;;;;;;16.07;14.40;;;;;;;-0.75;100.00;97895.88;5023737;28;20613;-65
2023/02/03 00:31:38;;;;;;;15.00;13.53;;;;;;;-0.76;100.00;97892.44;5065275;28;20230;-63
2023/02/03 00:34:07;;;;;;;15.53;14.03;;;;;;;-0.76;100.00;97891.59;5047538;28;20764;-65
2023/02/03 00:36:36;;;;;;;14.20;12.87;;;;;;;-0.75;100.00;97885.47;5060074;28;20206;-61
2023/02/03 00:39:03;;;;;;;14.23;12.80;;;;;;;-0.75;100.00;97898.47;5045677;28;20997;-64
2023/02/03 00:41:31;;;;;;;13.93;12.43;;;;;;;-0.68;100.00;97888.53;5048302;28;20236;-63
2023/02/03 00:43:59;;;;;;;13.93;12.63;;;;;;;-0.71;100.00;97871.31;5012097;28;21375;-63
2023/02/03 00:46:26;;;;;;;14.30;12.47;;;;;;;-0.56;100.00;97887.75;5070831;28;20195;-64
2023/02/03 00:48:54;;;;;;;13.30;11.90;;;;;;;-0.53;100.00;97891.94;5072408;28;20533;-64
2023/02/03 00:51:23;;;;;;;12.70;11.40;;;;;;;-0.43;100.00;97893.03;5043416;28;20254;-64
2023/02/03 00:53:50;;;;;;;11.33;10.23;;;;;;;-0.40;100.00;97894.56;5065387;28;20216;-64
2023/02/03 00:56:18;;;;;;;10.47;9.37;;;;;;;-0.33;100.00;97901.09;5049507;28;20230;-64
2023/02/03 00:58:46;;;;;;;10.17;9.23;;;;;;;-0.26;100.00;97891.94;5008011;28;20231;-63
2023/02/03 01:01:13;;;;;;;11.33;10.33;;;;;;;-0.17;100.00;97895.75;5064672;28;20218;-62
2023/02/03 01:03:41;;;;;;;11.33;10.20;;;;;;;-0.11;100.00;97887.53;5063362;28;20209;-63
2023/02/03 01:06:10;;;;;;;9.80;8.87;;;;;;;-0.09;100.00;97892.63;5045390;28;20210;-63
2023/02/03 01:08:39;;;;;;;9.70;8.70;;;;;;;-0.06;100.00;97895.88;5067253;28;20206;-60
2023/02/03 01:11:08;;;;;;;9.30;8.50;;;;;;;-0.06;100.00;97885.47;5044795;28;20477;-64
2023/02/03 01:13:36;;;;;;;7.87;7.17;;;;;;;0.01;100.00;97887.66;5044604;28;20211;-63
2023/02/03 01:16:06;;;;;;;6.67;6.17;;;;;;;0.17;100.00;97890.91;5019543;28;20765;-64
2023/02/03 01:18:34;;;;;;;6.57;5.90;;;;;;;0.16;100.00;97880.59;5064792;28;20608;-63
2023/02/03 01:21:05;;;;;;;6.17;4.47;;;;;;;0.19;100.00;97883.84;5049735;28;20689;-63
2023/02/03 01:23:34;;;;;;;4.43;3.93;;;;;;;0.33;100.00;97889.91;5065321;28;20202;-63
2023/02/03 01:26:07;;;;;;;4.40;4.00;;;;;;;0.32;100.00;97881.25;5046583;28;21236;-64
2023/02/03 01:28:35;;;;;;;3.93;3.67;;;;;;;0.38;100.00;97877.41;5048443;28;20203;-62
2023/02/03 01:31:11;;;;;;;4.60;3.70;;;;;;;0.39;100.00;97882.53;5010106;28;20444;-65
2023/02/03 01:33:39;;;;;;;3.63;3.43;;;;;;;0.37;100.00;97866.13;5060342;28;20735;-62
2023/02/03 01:36:08;;;;;;;3.40;3.13;;;;;;;0.52;100.00;97881.69;5063691;28;20202;-61
2023/02/03 01:38:36;;;;;;;3.00;2.73;;;;;;;0.51;100.00;97874.81;5046992;28;20670;-62
2023/02/03 01:41:06;;;;;;;4.73;3.23;;;;;;;0.52;100.00;97879.91;5041245;28;20337;-64
2023/02/03 01:43:35;;;;;;;2.73;2.63;;;;;;;0.64;100.00;97880.03;5064030;28;20206;-61
2023/02/03 01:46:07;;;;;;;2.47;2.37;;;;;;;0.63;100.00;97880.97;5003813;28;20219;-64
2023/02/03 01:48:35;;;;;;;3.07;2.90;;;;;;;0.68;100.00;97868.47;5059291;28;20721;-62
2023/02/03 01:51:04;;;;;;;3.00;2.80;;;;;;;0.67;100.00;97866.78;5061167;28;20328;-61
2023/02/03 01:53:32;;;;;;;2.80;2.60;;;;;;;0.62;100.00;97868.88;5048869;28;20712;-61
2023/02/03 01:56:01;;;;;;;2.63;2.43;;;;;;;0.77;100.00;97864.41;5067614;28;20209;-63
2023/02/03 01:58:31;;;;;;;3.07;2.30;;;;;;;0.80;100.00;97870.22;5048146;28;20233;-62
2023/02/03 02:00:59;;;;;;;2.53;2.43;;;;;;;0.79;100.00;97867.72;5007779;28;20811;-62
2023/02/03 02:03:31;;;;;;;2.80;2.30;;;;;;;0.75;100.00;97869.69;5063181;28;20190;-62
2023/02/03 02:06:03;;;;;;;2.50;2.40;;;;;;;0.79;100.00;97862.50;5063604;28;20238;-64
2023/02/03 02:08:30;;;;;;;2.30;2.20;;;;;;;0.62;100.00;97846.22;5029171;28;20444;-60
2023/02/03 02:10:59;;;;;;;2.27;2.17;;;;;;;0.65;100.00;97848.63;5063850;28;20230;-63
2023/02/03 02:13:27;;;;;;;2.17;2.07;;;;;;;0.63;100.00;97840.06;5026092;28;20202;-63
2023/02/03 02:16:00;;;;;;;2.53;2.33;;;;;;;0.67;100.00;97840.72;5044791;28;20202;-63
2023/02/03 02:18:56;;;;;;;2.07;1.97;;;;;;;0.65;100.00;97825.16;5019444;28;20321;-62
2023/02/03 02:21:41;;;;;;;2.60;2.50;;;;;;;0.71;100.00;97823.91;5061963;28;20338;-60
2023/02/03 02:24:36;;;;;;;2.23;2.13;;;;;;;0.76;100.00;97820.97;5048145;28;20649;-64
2023/02/03 02:27:07;;;;;;;1.87;1.87;;;;;;;0.69;100.00;97817.97;5066406;28;20577;-63
2023/02/03 02:30:15;;;;;;;2.50;2.40;;;;;;;0.70;100.00;97807.41;5007130;28;20207;-61
2023/02/03 02:33:00;;;;;;;2.37;2.17;;;;;;;0.74;100.00;97802.81;5014704;28;20423;-64
2023/02/03 02:35:35;;;;;;;2.50;2.30;;;;;;;0.69;100.00;97797.09;5063055;28;20611;-62
2023/02/03 02:38:05;;;;;;;2.70;2.00;;;;;;;0.75;100.00;97799.28;5060814;28;20214;-64
2023/02/03 02:40:36;;;;;;;2.40;2.30;;;;;;;0.77;100.00;97789.56;5052409;28;20222;-61
2023/02/03 02:43:09;;;;;;;2.90;2.50;;;;;;;0.78;100.00;97796.44;5042673;28;20206;-61
2023/02/03 02:45:43;;;;;;;2.63;2.53;;;;;;;0.78;100.00;97787.81;5023833;28;20217;-64
2023/02/03 02:48:17;;;;;;;2.47;2.37;;;;;;;0.80;100.00;97788.53;5017136;28;21466;-60
2023/02/03 02:50:49;;;;;;;2.53;2.33;;;;;;;0.72;100.00;97789.06;5065289;28;20725;-64
2023/02/03 02:53:19;;;;;;;2.70;2.60;;;;;;;0.85;100.00;97791.66;5062795;28;20214;-63
2023/02/03 02:55:46;;;;;;;2.83;2.70;;;;;;;0.89;100.00;97792.25;5051925;28;20340;-64
2023/02/03 02:58:15;;;;;;;3.67;3.00;;;;;;;0.87;100.00;97787.16;5045395;28;20803;-63
2023/02/03 03:00:44;;;;;;;3.17;2.97;;;;;;;0.98;100.00;97797.66;5049686;28;20229;-65
2023/02/03 03:03:17;;;;;;;2.47;2.37;;;;;;;1.00;100.00;97790.56;5001832;28;20761;-64
2023/02/03 03:05:50;;;;;;;3.30;3.00;;;;;;;1.14;100.00;97800.00;5068461;28;20198;-64
2023/02/03 03:08:20;;;;;;;3.53;3.23;;;;;;;1.15;100.00;97793.84;5057579;28;20383;-64
2023/02/03 03:10:48;;;;;;;3.60;3.40;;;;;;;1.21;100.00;97799.56;5050498;28;20226;-61
2023/02/03 03:13:20;;;;;;;3.77;3.47;;;;;;;1.25;100.00;97780.13;5045303;28;20308;-63
2023/02/03 03:15:48;;;;;;;3.70;3.50;;;;;;;1.35;100.00;97770.72;5048857;28;20214;-61
2023/02/03 03:18:19;;;;;;;4.67;4.30;;;;;;;1.40;100.00;97773.81;5013215;28;21151;-65
2023/02/03 03:20:48;;;;;;;4.23;3.90;;;;;;;1.33;100.00;97767.38;5064382;28;20222;-64
2023/02/03 03:23:19;;;;;;;5.80;5.20;;;;;;;1.46;100.00;97766.47;5063668;28;20308;-64
2023/02/03 03:25:49;;;;;;;5.77;5.20;;;;;;;1.55;100.00;97777.09;5061178;28;20213;-64
2023/02/03 03:28:22;;;;;;;6.00;5.50;;;;;;;1.61;100.00;97781.00;5030799;28;20814;-64
2023/02/03 03:30:50;;;;;;;5.73;5.33;;;;;;;1.69;100.00;97791.72;5066815;28;20244;-63
2023/02/03 03:33:20;;;;;;;6.87;6.23;;;;;;;1.68;100.00;97779.63;4985883;28;20232;-64
2023/02/03 03:35:50;;;;;;;8.53;6.63;;;;;;;1.79;100.00;97789.28;5067599;28;20206;-62
2023/02/03 03:38:21;;;;;;;7.77;6.63;;;;;;;1.85;100.00;97788.81;5066348;28;20471;-63
2023/02/03 03:40:53;;;;;;;7.10;6.40;;;;;;;1.87;100.00;97791.34;5065309;28;20316;-64
2023/02/03 03:43:24;;;;;;;8.83;7.53;;;;;;;1.94;100.00;97779.47;5049765;28;20615;-65
2023/02/03 03:45:55;;;;;;;7.73;6.83;;;;;;;1.91;100.00;97786.72;5050208;28;20206;-60
2023/02/03 03:48:27;;;;;;;8.93;7.67;;;;;;;1.99;100.00;97784.38;5030331;28;20973;-63
2023/02/03 03:50:58;;;;;;;10.37;7.27;;;;;;;1.94;100.00;97784.69;5026145;28;20253;-63
2023/02/03 03:53:27;;;;;;;8.13;7.43;;;;;;;1.88;100.00;97788.59;5067697;28;20203;-63
2023/02/03 03:55:56;;;;;;;8.37;6.87;;;;;;;1.97;100.00;97787.06;5072350;28;20305;-63
2023/02/03 03:58:28;;;;;;;7.90;7.20;;;;;;;1.95;100.00;97788.97;5051320;28;20212;-63
2023/02/03 04:00:58;;;;;;;8.47;7.10;;;;;;;2.12;100.00;97799.97;5047876;28;20669;-62
2023/02/03 04:03:32;;;;;;;7.57;6.93;;;;;;;2.09;100.00;97827.16;5046953;28;20500;-61
2023/02/03 04:05:59;;;;;;;10.63;7.37;;;;;;;2.05;100.00;97832.72;5014766;28;20213;-64
2023/02/03 04:08:27;;;;;;;8.07;7.10;;;;;;;2.04;100.00;97829.28;5060987;28;20222;-64
2023/02/03 04:10:54;;;;;;;7.70;7.10;;;;;;;2.03;100.00;97844.13;5059540;28;20320;-63
2023/02/03 04:13:22;;;;;;;8.33;7.40;;;;;;;2.11;100.00;97834.91;5042320;28;20305;-64
2023/02/03 04:15:49;;;;;;;7.63;6.87;;;;;;;2.02;100.00;97839.84;5022619;28;20582;-63
2023/02/03 04:18:17;;;;;;;8.03;6.50;;;;;;;1.96;100.00;97839.47;5063322;28;20262;-64
2023/02/03 04:20:47;;;;;;;9.97;5.97;;;;;;;1.98;100.00;97829.75;5028007;28;20236;-64
2023/02/03 04:23:14;;;;;;;6.60;6.00;;;;;;;1.99;100.00;97816.53;5055866;28;20217;-64
2023/02/03 04:25:42;;;;;;;7.03;6.53;;;;;;;1.99;100.00;97826.19;5068891;28;20866;-64
2023/02/03 04:28:09;;;;;;;8.37;5.17;;;;;;;1.96;100.00;97816.78;5060715;28;20187;-63
2023/02/03 04:30:37;;;;;;;5.83;5.33;;;;;;;1.92;100.00;97820.56;5048813;28;20536;-63
2023/02/03 04:33:05;;;;;;;5.20;4.80;;;;;;;1.98;100.00;97816.69;5037154;28;20233;-63
2023/02/03 04:35:32;;;;;;;5.90;5.23;;;;;;;2.10;100.00;97823.59;5044135;28;20206;-63
2023/02/03 04:38:01;;;;;;;5.00;4.60;;;;;;;2.00;100.00;97823.44;5044095;28;20392;-65
2023/02/03 04:40:29;;;;;;;5.27;4.77;;;;;;;1.99;100.00;97827.00;5069335;28;20237;-64
2023/02/03 04:42:57;;;;;;;5.30;4.90;;;;;;;1.96;100.00;97827.22;5057182;28;20251;-64
2023/02/03 04:45:24;;;;;;;3.90;3.70;;;;;;;1.95;100.00;97814.28;5069564;28;20206;-62
2023/02/03 04:47:53;;;;;;;4.63;4.13;;;;;;;1.84;100.00;97804.63;5020593;28;20297;-63
2023/02/03 04:50:21;;;;;;;4.03;3.73;;;;;;;1.80;100.00;97792.75;5046818;28;20227;-62
2023/02/03 04:52:48;;;;;;;3.33;3.17;;;;;;;1.85;100.00;97791.44;5020864;28;20699;-63
2023/02/03 04:55:17;;;;;;;3.97;3.33;;;;;;;1.81;100.00;97786.56;5070143;28;20210;-63
2023/02/03 04:57:45;;;;;;;5.70;4.10;;;;;;;1.81;100.00;97783.94;5069104;28;20535;-62
2023/02/03 05:00:14;;;;;;;3.80;3.50;;;;;;;1.92;100.00;97775.31;5064821;28;20217;-64
2023/02/03 05:02:41;;;;;;;3.70;3.40;;;;;;;1.82;100.00;97778.59;5045980;28;20221;-62
2023/02/03 05:05:09;;;;;;;3.83;3.63;;;;;;;1.79;100.00;97767.56;5045757;28;20305;-62
2023/02/03 05:07:36;;;;;;;4.17;3.23;;;;;;;1.88;100.00;97759.03;5026295;28;20222;-62
2023/02/03 05:10:04;;;;;;;3.37;3.17;;;;;;;1.94;100.00;97761.16;5060520;28;20246;-64
2023/02/03 05:12:34;;;;;;;3.20;2.93;;;;;;;1.92;100.00;97768.28;5070708;28;20729;-64
2023/02/03 05:15:02;;;;;;;3.50;3.20;;;;;;;1.91;100.00;97777.09;5058566;28;20451;-64
2023/02/03 05:17:29;;;;;;;5.17;3.30;;;;;;;1.93;100.00;97780.41;5035168;28;20224;-62
2023/02/03 05:19:57;;;;;;;3.30;3.10;;;;;;;1.96;100.00;97781.97;5066290;28;20841;-64
2023/02/03 05:22:24;;;;;;;4.03;3.67;;;;;;;2.02;100.00;97791.97;4999840;28;20210;-65
2023/02/03 05:24:52;;;;;;;3.80;3.50;;;;;;;2.00;100.00;97783.41;5066575;28;20550;-64
2023/02/03 05:27:19;;;;;;;3.60;3.30;;;;;;;1.98;100.00;97772.25;5068334;28;20202;-64
2023/02/03 05:29:48;;;;;;;3.53;3.23;;;;;;;1.94;100.00;97766.41;5059646;28;20222;-64
2023/02/03 05:32:16;;;;;;;4.37;3.40;;;;;;;1.97;100.00;97786.25;5046471;28;20888;-65
2023/02/03 05:34:43;;;;;;;3.37;3.17;;;;;;;2.01;100.00;97791.13;5058734;28;20203;-64
2023/02/03 05:37:11;;;;;;;3.83;3.50;;;;;;;1.91;100.00;97790.16;5010677;28;22042;-62
2023/02/03 05:39:38;;;;;;;3.83;3.57;;;;;;;1.94;100.00;97771.63;5061258;28;20210;-65
2023/02/03 05:42:05;;;;;;;3.50;3.30;;;;;;;1.90;100.00;97787.66;5060403;28;20876;-63
2023/02/03 05:44:33;;;;;;;3.70;3.23;;;;;;;1.93;100.00;97793.47;5062683;28;20772;-68
2023/02/03 05:47:01;;;;;;;3.67;3.47;;;;;;;1.88;100.00;97806.06;5062721;28;20206;-67
2023/02/03 05:49:29;;;;;;;3.97;3.40;;;;;;;1.93;100.00;97817.00;5044958;28;20225;-65
2023/02/03 05:51:56;;;;;;;3.97;3.67;;;;;;;1.88;100.00;97813.91;5042577;28;20198;-67
2023/02/03 05:54:24;;;;;;;3.87;3.63;;;;;;;1.83;100.00;97810.81;5028199;28;20225;-64
2023/02/03 05:56:52;;;;;;;3.67;3.47;;;;;;;1.80;100.00;97811.03;5064643;28;20216;-67
2023/02/03 05:59:20;;;;;;;4.03;3.83;;;;;;;1.76;100.00;97799.16;5063412;28;20238;-63
2023/02/03 06:01:47;;;;;;;4.30;4.00;;;;;;;1.91;100.00;97810.25;5059515;28;20519;-65
2023/02/03 06:04:16;;;;;;;4.17;3.87;;;;;;;1.86;100.00;97800.94;5047823;28;20216;-65
2023/02/03 06:06:44;;;;;;;4.57;4.27;;;;;;;1.96;100.00;97800.28;5063541;28;20751;-66
2023/02/03 06:09:11;;;;;;;4.57;4.07;;;;;;;1.84;100.00;97781.94;5021282;28;20598;-64
2023/02/03 06:11:41;;;;;;;5.10;4.27;;;;;;;1.88;100.00;97796.44;5063342;28;20610;-67
2023/02/03 06:14:09;;;;;;;4.97;4.43;;;;;;;1.91;100.00;97805.84;5045590;28;20662;-66
2023/02/03 06:16:36;;;;;;;4.50;4.20;;;;;;;1.89;100.00;97797.28;5070248;28;20191;-66
2023/02/03 06:19:04;;;;;;;4.73;4.33;;;;;;;1.83;100.00;97795.94;5042326;28;20777;-64
2023/02/03 06:21:33;;;;;;;4.57;4.17;;;;;;;1.88;100.00;97783.38;5060968;28;20670;-65
2023/02/03 06:24:00;;;;;;;4.83;4.40;;;;;;;1.79;100.00;97772.78;5036172;28;20214;-64
2023/02/03 06:26:28;;;;;;;4.63;4.33;;;;;;;1.63;100.00;97768.69;5060257;28;20202;-66
2023/02/03 06:28:56;;;;;;;4.10;3.70;;;;;;;1.67;100.00;97762.28;5066938;28;20222;-64
2023/02/03 06:31:23;;;;;;;4.40;4.10;;;;;;;1.64;100.00;97752.06;5062210;28;20206;-65
2023/02/03 06:33:51;;;;;;;4.07;3.87;;;;;;;1.56;100.00;97750.03;5068996;28;20202;-64
2023/02/03 06:36:19;;;;;;;3.93;3.73;;;;;;;1.55;100.00;97760.56;5052523;28;20221;-66
2023/02/03 06:38:48;;;;;;;4.10;3.80;;;;;;;1.51;100.00;97754.72;5070232;28;20198;-64
2023/02/03 06:41:16;;;;;;;3.67;3.47;;;;;;;1.55;100.00;97750.13;5044732;28;20324;-63
2023/02/03 06:43:43;;;;;;;3.83;3.53;;;;;;;1.65;100.00;97752.91;5066084;28;20455;-65
2023/02/03 06:46:11;;;;;;;3.67;3.47;;;;;;;1.65;100.00;97758.94;5065986;28;20202;-64
2023/02/03 06:48:39;;;;;;;3.70;3.50;;;;;;;1.63;100.00;97741.72;5065792;28;20213;-67
2023/02/03 06:51:06;;;;;;;4.07;3.77;;;;;;;1.62;100.00;97732.22;5043513;28;20951;-63
2023/02/03 06:53:34;;;;;;;5.50;4.60;;;;;;;1.62;100.00;97722.59;5061128;28;20289;-62
2023/02/03 06:56:03;;;;;;;3.97;3.60;;;;;;;1.61;100.00;97720.13;5041415;28;20215;-64
2023/02/03 06:58:30;;;;;;;3.07;2.87;;;;;;;1.63;100.00;97719.03;5067247;28;20194;-65
2023/02/03 07:00:58;;;;;;;3.97;3.70;;;;;;;1.58;100.00;97737.69;5063043;28;20230;-64
2023/02/03 07:03:26;;;;;;;3.40;3.20;;;;;;;1.65;100.00;97738.03;5066164;28;20206;-66
2023/02/03 07:05:53;;;;;;;3.63;3.40;;;;;;;1.73;100.00;97740.94;5061826;28;20591;-66
2023/02/03 07:08:21;;;;;;;3.63;3.43;;;;;;;1.84;100.00;97734.88;5054283;28;20210;-65
2023/02/03 07:10:53;;;;;;;3.50;3.30;;;;;;;1.78;100.00;97731.94;5033867;28;20743;-64
2023/02/03 07:13:22;;;;;;;3.20;2.90;;;;;;;1.80;100.00;97740.47;5066341;28;20190;-63
2023/02/03 07:15:50;;;;;;;3.40;3.20;;;;;;;1.76;100.00;97739.03;5062054;28;20876;-64
2023/02/03 07:18:20;;;;;;;3.10;2.90;;;;;;;1.83;100.00;97743.69;5062332;28;20202;-65
2023/02/03 07:21:08;;;;;;;3.23;3.03;;;;;;;1.92;100.00;97757.03;5058695;28;20218;-64
2023/02/03 07:23:35;;;;;;;3.50;3.27;;;;;;;1.85;100.00;97756.66;5048128;28;20198;-64
2023/02/03 07:26:04;;;;;;;3.07;2.87;;;;;;;1.85;100.00;97757.47;5035370;28;20198;-63
2023/02/03 07:28:34;;;;;;;3.10;2.90;;;;;;;1.85;100.00;97746.19;5063691;28;20206;-64
2023/02/03 07:31:03;;;;;;;3.03;2.90;;;;;;;1.83;100.00;97754.13;5066049;28;20219;-65
2023/02/03 07:33:31;;;;;;;3.57;3.27;;;;;;;1.84;100.00;97758.41;5073389;28;20209;-64
2023/02/03 07:35:59;;;;;;;3.60;3.40;;;;;;;2.00;100.00;97745.03;5070630;28;20866;-64
2023/02/03 07:38:28;;;;;;;3.53;3.33;;;;;;;2.01;100.00;97735.41;5048733;28;20213;-64
2023/02/03 07:40:56;;;;;;;3.27;3.07;;;;;;;1.91;100.00;97732.66;5048646;28;20331;-63
2023/02/03 07:43:23;;;;;;;3.60;3.30;;;;;;;1.93;100.00;97741.22;5052361;28;20218;-63
2023/02/03 07:45:52;;;;;;;4.17;3.97;;;;;;;1.99;100.00;97742.53;5062953;28;20202;-62
2023/02/03 07:48:20;;;;;;;3.77;3.57;;;;;;;2.05;100.00;97743.84;5073774;28;20189;-65
2023/02/03 07:50:49;;;;;;;3.83;3.53;;;;;;;2.11;100.00;97749.44;5068033;28;20301;-63
2023/02/03 07:53:17;;;;;;;3.80;3.57;;;;;;;2.25;100.00;97748.41;5063191;28;20953;-63
2023/02/03 07:55:45;;;;;;;3.67;3.40;;;;;;;2.20;100.00;97760.16;5052607;28;20809;-64
2023/02/03 07:58:12;;;;;;;3.43;3.23;;;;;;;2.32;100.00;97756.63;5049529;28;20201;-64
2023/02/03 08:00:40;;;;;;;3.90;3.60;;;;;;;2.21;100.00;97749.59;5061724;28;20221;-65
2023/02/03 08:03:09;;;;;;;3.60;3.40;;;;;;;2.27;100.00;97746.50;5070752;28;20201;-62
2023/02/03 08:05:36;;;;;;;3.53;3.23;;;;;;;2.31;100.00;97750.53;5067812;28;20194;-65
2023/02/03 08:08:04;;;;;;;3.70;3.40;;;;;;;2.31;100.00;97765.41;5063562;28;20194;-64
2023/02/03 08:10:32;;;;;;;3.47;3.27;;;;;;;2.30;100.00;97741.03;5048261;28;20744;-64
2023/02/03 08:13:00;;;;;;;3.50;3.30;;;;;;;2.29;100.00;97756.84;5044961;28;20195;-62
2023/02/03 08:15:28;;;;;;;3.33;3.10;;;;;;;2.44;100.00;97745.19;5061683;28;20283;-61
2023/02/03 08:17:55;;;;;;;3.03;2.83;;;;;;;2.45;100.00;97753.88;5065431;28;20203;-61
2023/02/03 08:20:24;;;;;;;3.60;3.50;;;;;;;2.48;100.00;97753.66;5069896;28;20748;-61
2023/02/03 08:22:52;;;;;;;2.87;2.70;;;;;;;2.43;100.00;97751.38;5064977;28;20220;-62
2023/02/03 08:25:20;;;;;;;3.97;3.77;;;;;;;2.40;100.00;97745.53;5051515;28;20482;-65
2023/02/03 08:27:49;;;;;;;3.03;2.93;;;;;;;2.41;100.00;97739.38;5051405;28;20202;-62
2023/02/03 08:30:18;;;;;;;3.73;2.43;;;;;;;2.36;100.00;97731.88;5031892;28;20321;-62
2023/02/03 08:32:45;;;;;;;2.90;2.80;;;;;;;2.44;100.00;97724.28;5062191;28;20200;-64
2023/02/03 08:35:13;;;;;;;2.77;2.67;;;;;;;2.51;100.00;97729.03;5059477;28;20409;-63
2023/02/03 08:37:42;;;;;;;3.10;2.90;;;;;;;2.58;100.00;97735.44;5065904;28;20231;-64
2023/02/03 08:40:11;;;;;;;4.73;2.80;;;;;;;2.44;100.00;97737.34;5041519;28;20334;-63
2023/02/03 08:42:38;;;;;;;2.60;2.40;;;;;;;2.50;100.00;97736.06;5068784;28;20218;-64
2023/02/03 08:45:07;;;;;;;2.73;2.63;;;;;;;2.52;100.00;97725.47;5024298;28;20760;-65
2023/02/03 08:47:36;;;;;;;2.37;2.17;;;;;;;2.50;100.00;97719.50;5064547;28;20214;-66
2023/02/03 08:50:04;;;;;;;2.70;2.60;;;;;;;2.55;100.00;97726.06;5061735;28;20503;-63
2023/02/03 08:52:31;;;;;;;2.80;2.70;;;;;;;2.42;100.00;97728.78;5065473;28;20201;-65
2023/02/03 08:55:00;;;;;;;2.50;2.40;;;;;;;2.50;100.00;97720.38;5063689;28;20198;-63
2023/02/03 08:57:32;;;;;;;2.30;2.20;;;;;;;2.61;100.00;97727.34;5044810;28;20214;-65
2023/02/03 09:00:00;;;;;;;2.90;2.70;;;;;;;2.55;100.00;97714.75;5033021;28;20217;-63
2023/02/03 09:02:27;;;;;;;2.20;2.10;;;;;;;2.53;100.00;97721.88;5059298;28;20419;-65
2023/02/03 09:04:55;;;;;;;2.50;2.40;;;;;;;2.58;100.00;97723.19;5067509;28;20412;-62
2023/02/03 09:07:23;;;;;;;2.20;2.10;;;;;;;2.66;100.00;97725.22;5067930;28;20606;-62
2023/02/03 09:09:50;;;;;;;2.50;2.33;;;;;;;2.68;100.00;97715.47;5065928;28;20241;-63
2023/02/03 09:12:19;;;;;;;1.83;1.83;;;;;;;2.70;100.00;97726.66;5049777;28;20868;-63
2023/02/03 09:14:47;;;;;;;2.27;2.07;;;;;;;2.68;100.00;97723.31;5064960;28;20392;-63
2023/02/03 09:17:14;;;;;;;2.10;2.00;;;;;;;2.71;100.00;97715.22;5021903;28;20335;-65
2023/02/03 09:19:42;;;;;;;2.03;1.93;;;;;;;2.74;100.00;97714.97;5067602;28;20804;-64
2023/02/03 09:22:09;;;;;;;1.57;1.57;;;;;;;2.77;100.00;97726.97;5054878;28;20698;-63
2023/02/03 09:24:37;;;;;;;2.00;1.93;;;;;;;2.81;100.00;97720.53;5075438;28;20205;-65
2023/02/03 09:27:04;;;;;;;2.07;1.97;;;;;;;2.77;100.00;97736.63;5043307;28;20451;-63
2023/02/03 09:29:33;;;;;;;2.23;2.10;;;;;;;2.78;100.00;97728.63;5067059;28;20615;-65
2023/02/03 09:32:06;;;;;;;1.87;1.73;;;;;;;2.77;100.00;97724.34;5017550;28;20741;-65
2023/02/03 09:34:34;;;;;;;1.70;1.70;;;;;;;2.80;100.00;97713.66;5067416;28;20360;-64
2023/02/03 09:37:03;;;;;;;2.10;2.07;;;;;;;2.74;100.00;97721.97;5064573;28;20202;-64
2023/02/03 09:39:30;;;;;;;3.53;1.53;;;;;;;2.76;100.00;97725.31;5067983;28;20297;-64
2023/02/03 09:42:24;;;;;;;1.70;1.63;;;;;;;2.79;100.00;97711.97;5050691;28;20273;-63
2023/02/03 09:44:59;;;;;;;2.10;2.00;;;;;;;2.76;100.00;97714.84;5061430;28;20244;-63
2023/02/03 09:47:28;;;;;;;2.50;2.30;;;;;;;2.92;100.00;97708.41;5063623;28;20227;-65
2023/02/03 09:49:58;;;;;;;1.90;1.80;;;;;;;2.87;100.00;97725.31;4999460;28;20246;-65
2023/02/03 09:52:28;;;;;;;2.27;2.17;;;;;;;2.81;100.00;97707.47;5066676;28;20205;-63
2023/02/03 09:55:01;;;;;;;2.30;2.20;;;;;;;2.90;100.00;97719.00;5069733;28;20202;-64
2023/02/03 09:57:30;;;;;;;2.33;2.20;;;;;;;2.78;100.00;97702.47;5034562;28;20202;-65
2023/02/03 10:00:02;;;;;;;2.10;2.00;;;;;;;2.90;100.00;97705.91;5067786;28;20217;-64
2023/02/03 10:02:38;;;;;;;2.27;2.17;;;;;;;2.91;100.00;97699.72;5066933;28;20915;-62
2023/02/03 10:05:13;;;;;;;2.33;2.13;;;;;;;3.02;100.00;97704.09;5052869;28;20284;-63
2023/02/03 10:07:47;;;;;;;2.30;2.20;;;;;;;3.04;100.00;97708.25;5059553;28;21019;-65
2023/02/03 10:10:21;;;;;;;2.37;2.27;;;;;;;3.10;100.00;97687.78;5057674;28;20325;-62
2023/02/03 10:13:18;;;;;;;2.47;2.27;;;;;;;3.22;100.00;97684.16;5052750;28;20491;-64
2023/02/03 10:16:00;;;;;;;2.50;2.40;;;;;;;3.31;100.00;97693.06;5053484;28;20218;-63
2023/02/03 10:18:31;;;;;;;2.37;2.27;;;;;;;3.29;100.00;97668.78;5034875;28;20209;-63
2023/02/03 10:21:02;;;;;;;2.03;1.93;;;;;;;3.43;100.00;97670.25;5064694;28;20350;-65
2023/02/03 10:23:33;;;;;;;2.23;2.13;;;;;;;3.53;100.00;97692.13;5053936;28;20222;-62
2023/02/03 10:26:02;;;;;;;2.30;2.20;;;;;;;3.53;100.00;97692.13;5065113;28;20198;-63
2023/02/03 10:28:31;;;;;;;2.10;2.00;;;;;;;3.54;100.00;97700.78;5030180;28;20771;-65
2023/02/03 10:31:03;;;;;;;2.40;2.20;;;;;;;3.54;100.00;97688.53;5063574;28;20737;-65
2023/02/03 10:33:31;;;;;;;2.00;1.90;;;;;;;3.50;100.00;97681.88;5058001;28;20194;-63
2023/02/03 10:36:04;;;;;;;2.57;2.20;;;;;;;3.55;100.00;97682.34;5021833;28;20209;-64
2023/02/03 10:38:44;;;;;;;2.10;2.00;;;;;;;3.56;100.00;97654.31;5056526;28;20860;-63
2023/02/03 10:41:11;;;;;;;2.20;2.10;;;;;;;3.52;100.00;97645.91;5063231;28;20231;-65
2023/02/03 10:43:50;;;;;;;1.97;1.70;;;;;;;3.64;100.00;97651.06;5024802;28;20223;-63
2023/02/03 10:46:21;;;;;;;1.83;1.73;;;;;;;3.69;100.00;97646.28;5062704;28;20206;-63
2023/02/03 10:48:49;;;;;;;2.00;1.90;;;;;;;3.68;100.00;97642.00;5059925;28;20293;-64
2023/02/03 10:51:21;;;;;;;1.70;1.70;;;;;;;3.78;100.00;97626.34;5024120;28;20238;-62
2023/02/03 10:53:51;;;;;;;2.10;1.90;;;;;;;3.71;100.00;97620.78;5060429;28;20227;-63
2023/02/03 10:56:22;;;;;;;2.03;1.93;;;;;;;3.82;100.00;97625.94;5062285;28;20221;-65
2023/02/03 10:58:52;;;;;;;2.20;2.07;;;;;;;3.83;100.00;97625.00;5054863;28;20218;-64
2023/02/03 11:01:22;;;;;;;3.20;2.10;;;;;;;3.92;100.00;97631.22;5046389;28;20231;-63
2023/02/03 11:03:58;;;;;;;1.90;1.80;;;;;;;3.94;100.00;97625.84;5063301;28;20226;-65
2023/02/03 11:06:27;;;;;;;1.87;1.87;;;;;;;3.86;100.00;97624.72;5027298;28;20456;-64
2023/02/03 11:08:55;;;;;;;2.03;1.93;;;;;;;3.92;100.00;97631.22;5058590;28;20203;-64
2023/02/03 11:11:25;;;;;;;1.70;1.60;;;;;;;3.84;100.00;97610.06;5063821;28;20249;-63
2023/02/03 11:13:54;;;;;;;1.87;1.77;;;;;;;3.83;100.00;97601.41;5048191;28;20200;-64
2023/02/03 11:16:24;;;;;;;1.37;1.37;;;;;;;3.75;100.00;97599.41;5045628;28;20210;-63
2023/02/03 11:18:54;;;;;;;1.53;1.50;;;;;;;3.77;100.00;97604.50;5065318;28;20198;-64
2023/02/03 11:21:23;;;;;;;1.70;1.60;;;;;;;3.71;100.00;97582.28;5063852;28;20604;-63
2023/02/03 11:23:57;;;;;;;1.43;1.43;;;;;;;3.84;100.00;97589.09;5024735;28;20428;-62
2023/02/03 11:26:27;;;;;;;1.63;1.57;;;;;;;3.87;100.00;97578.34;5056178;28;20199;-62
2023/02/03 11:28:59;;;;;;;2.30;2.10;;;;;;;3.80;100.00;97571.97;5050197;28;20202;-65
2023/02/03 11:31:29;;;;;;;1.80;1.70;;;;;;;3.74;100.00;97566.31;5046213;28;20240;-63
2023/02/03 11:33:59;;;;;;;1.90;1.80;;;;;;;3.75;100.00;97562.72;5059241;28;20469;-63
2023/02/03 11:36:28;;;;;;;2.27;2.10;;;;;;;3.85;100.00;97544.44;5063454;28;20891;-64
2023/02/03 11:39:24;;;;;;;1.97;1.87;;;;;;;3.86;100.00;97540.00;5021228;28;20297;-65
2023/02/03 11:41:51;;;;;;;1.77;1.77;;;;;;;3.81;100.00;97536.94;5059430;28;20206;-64
2023/02/03 11:44:22;;;;;;;2.17;2.03;;;;;;;3.76;100.00;97540.78;5049761;28;20857;-64